createdAt,value
2019-02-12T00:00:11.311Z,11.83
2019-02-12T00:02:40.557Z,16.50
2019-02-12T00:05:09.904Z,19.17
2019-02-12T00:07:39.218Z,15.50
2019-02-12T00:10:08.929Z,26.93
2019-02-12T00:12:38.235Z,17.90
2019-02-12T00:15:07.639Z,20.93
2019-02-12T00:17:36.945Z,16.83
2019-02-12T00:20:06.415Z,16.27
2019-02-12T00:22:35.767Z,14.57
2019-02-12T00:25:05.417Z,20.57
2019-02-12T00:27:34.694Z,19.43
2019-02-12T00:30:04.225Z,18.27
2019-02-12T00:32:33.949Z,15.40
2019-02-12T00:35:03.225Z,19.70
2019-02-12T00:37:32.663Z,19.73
2019-02-12T00:40:02.587Z,19.10
2019-02-12T00:42:31.871Z,18.87
2019-02-12T00:45:01.152Z,20.70
2019-02-12T00:47:30.387Z,14.43
2019-02-12T00:49:59.651Z,16.60
2019-02-12T00:52:28.970Z,21.00
2019-02-12T00:54:59.238Z,17.77
2019-02-12T00:57:28.516Z,17.23
2019-02-12T00:59:57.784Z,19.03
2019-02-12T01:02:27.031Z,17.97
2019-02-12T01:04:56.298Z,17.43
2019-02-12T01:07:25.611Z,19.80
2019-02-12T01:09:54.914Z,19.20
2019-02-12T01:12:24.195Z,17.70
2019-02-12T01:14:53.472Z,18.00
2019-02-12T01:17:22.713Z,19.00
2019-02-12T01:19:51.978Z,18.47
2019-02-12T01:22:21.287Z,18.90
2019-02-12T01:24:50.653Z,18.80
2019-02-12T01:27:19.923Z,16.30
2019-02-12T01:29:49.595Z,15.33
2019-02-12T01:32:18.878Z,17.10
2019-02-12T01:34:48.138Z,13.83
2019-02-12T01:37:17.440Z,16.97
2019-02-12T01:39:46.693Z,14.90
2019-02-12T01:42:15.926Z,17.57
2019-02-12T01:44:45.602Z,20.70
2019-02-12T01:47:15.267Z,22.53
2019-02-12T01:49:44.526Z,28.57
2019-02-12T01:52:14.185Z,16.90
2019-02-12T01:54:43.765Z,17.10
2019-02-12T01:57:13.066Z,19.63
2019-02-12T01:59:42.335Z,19.43
2019-02-12T02:02:11.627Z,22.30
2019-02-12T02:04:41.017Z,16.93
2019-02-12T02:07:10.299Z,18.97
2019-02-12T02:09:39.589Z,20.37
2019-02-12T02:12:08.922Z,20.33
2019-02-12T02:14:38.187Z,17.27
2019-02-12T02:17:07.484Z,16.20
2019-02-12T02:19:36.745Z,18.57
2019-02-12T02:22:06.046Z,16.00
2019-02-12T02:24:35.322Z,20.77
2019-02-12T02:27:05.162Z,19.03
2019-02-12T02:29:34.435Z,21.55
2019-02-12T02:32:03.950Z,18.20
2019-02-12T02:34:33.255Z,18.03
2019-02-12T02:37:02.573Z,18.37
2019-02-12T02:39:31.973Z,13.80
2019-02-12T02:42:01.250Z,21.33
2019-02-12T02:44:30.972Z,20.20
2019-02-12T02:47:00.223Z,14.70
2019-02-12T02:49:29.513Z,20.27
2019-02-12T02:51:59.198Z,15.97
2019-02-12T02:54:28.463Z,13.80
2019-02-12T02:56:57.743Z,16.17
2019-02-12T02:59:27.015Z,20.20
2019-02-12T03:01:56.319Z,21.57
2019-02-12T03:04:26.563Z,18.03
2019-02-12T03:06:55.861Z,15.97
2019-02-12T03:09:25.134Z,22.45
2019-02-12T03:11:54.454Z,19.83
2019-02-12T03:14:23.831Z,18.97
2019-02-12T03:16:53.129Z,16.77
2019-02-12T03:19:22.406Z,14.80
2019-02-12T03:21:51.667Z,16.50
2019-02-12T03:24:20.966Z,18.20
2019-02-12T03:26:50.235Z,17.60
2019-02-12T03:29:19.494Z,15.27
2019-02-12T03:31:48.790Z,16.73
2019-02-12T03:34:18.150Z,14.03
2019-02-12T03:36:47.190Z,24.13
2019-02-12T03:39:15.994Z,14.77
2019-02-12T03:41:44.698Z,20.23
2019-02-12T03:44:13.430Z,21.07
2019-02-12T03:46:42.158Z,19.67
2019-02-12T03:49:10.882Z,14.03
2019-02-12T03:51:39.616Z,17.53
2019-02-12T03:54:08.402Z,20.33
2019-02-12T03:56:37.092Z,18.93
2019-02-12T03:59:05.826Z,15.80
2019-02-12T04:01:34.554Z,19.53
2019-02-12T04:04:03.268Z,17.67
2019-02-12T04:06:32.035Z,15.57
2019-02-12T04:09:00.891Z,18.83
2019-02-12T04:11:29.610Z,22.10
2019-02-12T04:13:58.326Z,19.70
2019-02-12T04:16:27.078Z,17.10
2019-02-12T04:18:55.786Z,15.43
2019-02-12T04:21:24.515Z,18.37
2019-02-12T04:23:53.241Z,16.47
2019-02-12T04:26:22.016Z,19.20
2019-02-12T04:28:50.743Z,18.83
2019-02-12T04:31:19.717Z,15.87
2019-02-12T04:33:48.458Z,23.17
2019-02-12T04:36:17.182Z,16.90
2019-02-12T04:38:45.921Z,17.63
2019-02-12T04:41:14.675Z,18.67
2019-02-12T04:43:43.431Z,22.57
2019-02-12T04:46:12.153Z,21.20
2019-02-12T04:48:40.897Z,16.00
2019-02-12T04:51:09.606Z,17.37
2019-02-12T04:53:38.340Z,22.37
2019-02-12T04:56:07.088Z,16.17
2019-02-12T04:58:35.819Z,16.33
2019-02-12T05:01:04.559Z,19.57
2019-02-12T05:03:33.306Z,17.23
2019-02-12T05:06:03.026Z,22.40
2019-02-12T05:08:49.791Z,18.93
2019-02-12T05:11:18.482Z,25.00
2019-02-12T05:13:47.217Z,19.37
2019-02-12T05:16:16.023Z,20.93
2019-02-12T05:18:44.871Z,19.90
2019-02-12T05:21:13.553Z,22.23
2019-02-12T05:23:42.308Z,16.67
2019-02-12T05:26:11.037Z,17.30
2019-02-12T05:28:39.729Z,19.50
2019-02-12T05:31:08.464Z,20.90
2019-02-12T05:33:37.173Z,16.73
2019-02-12T05:36:06.222Z,22.60
2019-02-12T05:38:34.957Z,23.10
2019-02-12T05:41:03.730Z,17.10
2019-02-12T05:43:32.697Z,23.30
2019-02-12T05:46:01.407Z,26.20
2019-02-12T05:48:30.172Z,19.47
2019-02-12T05:50:58.919Z,20.93
2019-02-12T05:53:27.633Z,17.80
2019-02-12T05:55:56.408Z,18.63
2019-02-12T05:58:25.136Z,18.03
2019-02-12T06:00:53.942Z,18.10
2019-02-12T06:03:22.681Z,18.40
2019-02-12T06:05:51.500Z,21.43
2019-02-12T06:08:20.255Z,20.23
2019-02-12T06:10:48.985Z,19.55
2019-02-12T06:13:17.718Z,22.70
2019-02-12T06:15:46.470Z,20.20
2019-02-12T06:18:15.293Z,19.80
2019-02-12T06:20:44.010Z,20.77
2019-02-12T06:23:12.813Z,14.93
2019-02-12T06:25:41.586Z,23.00
2019-02-12T06:28:10.311Z,23.67
2019-02-12T06:30:39.044Z,21.07
2019-02-12T06:33:08.002Z,16.83
2019-02-12T06:35:36.788Z,25.37
2019-02-12T06:38:05.546Z,21.33
2019-02-12T06:40:34.287Z,18.50
2019-02-12T06:43:03.020Z,23.77
2019-02-12T06:45:31.754Z,21.17
2019-02-12T06:48:00.501Z,24.87
2019-02-12T06:50:29.224Z,17.60
2019-02-12T06:52:58.871Z,21.07
2019-02-12T06:55:27.594Z,17.60
2019-02-12T06:57:56.350Z,18.03
2019-02-12T07:00:25.099Z,21.93
2019-02-12T07:03:25.031Z,19.50
2019-02-12T07:06:02.265Z,19.80
2019-02-12T07:08:36.660Z,21.87
2019-02-12T07:11:09.164Z,21.57
2019-02-12T07:13:50.395Z,20.57
2019-02-12T07:16:22.800Z,16.57
2019-02-12T07:19:06.405Z,12.90
2019-02-12T07:21:57.054Z,20.23
2019-02-12T07:24:47.700Z,18.67
2019-02-12T07:27:38.384Z,20.57
2019-02-12T07:30:17.642Z,21.80
2019-02-12T07:32:50.200Z,17.67
2019-02-12T07:35:26.986Z,18.03
2019-02-12T07:38:19.419Z,24.30
2019-02-12T07:41:02.364Z,24.13
2019-02-12T07:43:49.198Z,20.83
2019-02-12T07:46:37.041Z,21.47
2019-02-12T07:49:25.176Z,20.13
2019-02-12T07:52:22.333Z,20.30
2019-02-12T07:54:59.823Z,19.73
2019-02-12T07:57:38.002Z,13.37
2019-02-12T08:00:12.752Z,17.07
2019-02-12T08:02:52.173Z,20.47
2019-02-12T08:05:35.075Z,19.63
2019-02-12T08:08:13.828Z,14.10
2019-02-12T08:10:56.895Z,17.17
2019-02-12T08:14:00.125Z,19.13
2019-02-12T08:16:36.561Z,14.73
2019-02-12T08:19:30.337Z,18.57
2019-02-12T08:22:19.594Z,15.40
2019-02-12T08:25:13.701Z,14.80
2019-02-12T08:27:50.467Z,13.77
2019-02-12T08:30:38.294Z,13.50
2019-02-12T08:33:29.110Z,12.73
2019-02-12T08:36:10.771Z,14.43
2019-02-12T08:39:04.955Z,14.17
2019-02-12T08:41:51.410Z,11.87
2019-02-12T08:44:45.179Z,15.93
2019-02-12T08:47:36.122Z,15.10
2019-02-12T08:50:42.644Z,14.47
2019-02-12T08:53:25.513Z,13.93
2019-02-12T08:56:28.493Z,13.57
2019-02-12T08:59:19.234Z,13.30
2019-02-12T09:02:07.060Z,13.93
2019-02-12T09:04:45.748Z,10.93
2019-02-12T09:07:39.563Z,12.68
2019-02-12T09:10:27.629Z,19.50
2019-02-12T09:13:18.711Z,10.70
2019-02-12T09:16:18.934Z,15.23
2019-02-12T09:18:54.302Z,21.67
2019-02-12T09:21:39.070Z,10.07
2019-02-12T09:24:17.674Z,13.90
2019-02-12T09:27:08.406Z,14.73
2019-02-12T09:29:59.258Z,11.20
2019-02-12T09:32:45.875Z,18.93
2019-02-12T09:35:42.751Z,12.87
2019-02-12T09:38:29.659Z,13.10
2019-02-12T09:41:17.553Z,16.63
2019-02-12T09:44:04.329Z,17.70
2019-02-12T09:46:52.139Z,13.60
2019-02-12T09:49:38.646Z,14.80
2019-02-12T09:52:41.588Z,11.00
2019-02-12T09:55:29.458Z,16.33
2019-02-12T09:58:02.242Z,10.43
2019-02-12T10:00:38.511Z,15.73
2019-02-12T10:03:41.613Z,19.60
2019-02-12T10:06:38.378Z,14.60
2019-02-12T10:09:29.267Z,19.87
2019-02-12T10:12:19.885Z,14.83
2019-02-12T10:15:03.226Z,14.77
2019-02-12T10:18:03.536Z,13.33
2019-02-12T10:20:35.994Z,16.00
2019-02-12T10:23:13.563Z,12.43
2019-02-12T10:25:45.431Z,13.43
2019-02-12T10:28:51.678Z,10.10
2019-02-12T10:31:22.279Z,16.90
2019-02-12T10:33:51.031Z,14.53
2019-02-12T10:36:19.773Z,11.70
2019-02-12T10:38:48.499Z,12.60
2019-02-12T10:41:17.290Z,16.13
2019-02-12T10:43:46.031Z,19.23
2019-02-12T10:46:14.791Z,11.40
2019-02-12T10:48:43.507Z,14.73
2019-02-12T10:51:12.287Z,20.77
2019-02-12T10:53:41.070Z,18.47
2019-02-12T10:56:09.794Z,15.70
2019-02-12T10:58:38.567Z,12.00
2019-02-12T11:01:07.311Z,16.00
2019-02-12T11:03:36.031Z,13.03
2019-02-12T11:06:05.064Z,16.90
2019-02-12T11:08:33.826Z,12.57
2019-02-12T11:11:02.554Z,14.33
2019-02-12T11:13:31.422Z,13.63
2019-02-12T11:16:00.147Z,14.47
2019-02-12T11:18:28.880Z,12.93
2019-02-12T11:20:57.675Z,15.13
2019-02-12T11:23:26.719Z,14.47
2019-02-12T11:25:55.474Z,11.13
2019-02-12T11:28:24.214Z,9.37
2019-02-12T11:30:53.023Z,11.70
2019-02-12T11:33:21.788Z,10.83
2019-02-12T11:35:50.525Z,13.70
2019-02-12T11:38:19.333Z,12.83
2019-02-12T11:40:48.059Z,12.73
2019-02-12T11:43:16.833Z,11.57
2019-02-12T11:45:45.863Z,13.87
2019-02-12T11:48:14.594Z,9.13
2019-02-12T11:50:43.342Z,9.43
2019-02-12T11:53:12.217Z,13.27
2019-02-12T11:55:41.168Z,14.37
2019-02-12T11:58:09.992Z,11.17
2019-02-12T12:00:57.864Z,13.90
2019-02-12T12:03:26.609Z,9.23
2019-02-12T12:05:55.360Z,11.17
2019-02-12T12:08:24.176Z,10.07
2019-02-12T12:10:52.915Z,11.73
2019-02-12T12:13:21.718Z,11.33
2019-02-12T12:15:50.467Z,11.40
2019-02-12T12:18:19.255Z,12.43
2019-02-12T12:20:48.010Z,10.17
2019-02-12T12:23:16.758Z,10.27
2019-02-12T12:25:45.526Z,8.20
2019-02-12T12:28:14.263Z,11.13
2019-02-12T12:30:43.049Z,9.70
2019-02-12T12:33:11.797Z,11.13
2019-02-12T12:35:40.559Z,8.93
2019-02-12T12:38:09.403Z,11.37
2019-02-12T12:40:38.123Z,8.43
2019-02-12T12:43:06.859Z,10.07
2019-02-12T12:45:35.629Z,10.30
2019-02-12T12:48:04.362Z,11.87
2019-02-12T12:50:33.181Z,13.80
2019-02-12T12:53:02.015Z,10.00
2019-02-12T12:55:30.808Z,12.47
2019-02-12T12:57:59.523Z,9.77
2019-02-12T13:00:28.284Z,7.80
2019-02-12T13:02:57.170Z,8.00
2019-02-12T13:05:25.942Z,14.47
2019-02-12T13:07:54.678Z,8.73
2019-02-12T13:10:23.529Z,10.63
2019-02-12T13:12:52.268Z,11.47
2019-02-12T13:15:21.103Z,8.03
2019-02-12T13:17:49.874Z,12.10
2019-02-12T13:20:18.606Z,8.87
2019-02-12T13:22:47.324Z,9.27
2019-02-12T13:25:16.123Z,9.30
2019-02-12T13:27:45.296Z,9.87
2019-02-12T13:30:14.691Z,10.17
2019-02-12T13:32:43.440Z,9.50
2019-02-12T13:35:12.283Z,9.53
2019-02-12T13:37:41.060Z,9.30
2019-02-12T13:40:10.550Z,11.03
2019-02-12T13:42:39.327Z,7.03
2019-02-12T13:45:08.959Z,6.37
2019-02-12T13:47:37.677Z,5.27
2019-02-12T13:50:06.669Z,12.70
2019-02-12T13:52:36.060Z,7.60
2019-02-12T13:55:05.206Z,10.20
2019-02-12T13:57:33.972Z,9.20
2019-02-12T14:00:02.741Z,8.07
2019-02-12T14:02:31.499Z,6.93
2019-02-12T14:05:00.568Z,4.77
2019-02-12T14:07:29.316Z,8.27
2019-02-12T14:09:58.102Z,7.63
2019-02-12T14:12:26.887Z,12.47
2019-02-12T14:14:55.647Z,9.93
2019-02-12T14:17:24.384Z,9.57
2019-02-12T14:19:53.136Z,7.27
2019-02-12T14:22:22.160Z,6.23
2019-02-12T14:24:50.994Z,6.00
2019-02-12T14:27:19.795Z,8.07
2019-02-12T14:29:48.812Z,4.37
2019-02-12T14:32:17.641Z,7.60
2019-02-12T14:34:46.433Z,5.80
2019-02-12T14:37:15.286Z,9.17
2019-02-12T14:39:44.133Z,4.70
2019-02-12T14:42:12.940Z,6.77
2019-02-12T14:44:41.657Z,6.90
2019-02-12T14:47:10.415Z,6.07
2019-02-12T14:49:39.198Z,6.67
2019-02-12T14:52:07.919Z,4.63
2019-02-12T14:54:36.611Z,6.53
2019-02-12T14:57:05.342Z,6.97
2019-02-12T14:59:34.134Z,5.43
2019-02-12T15:02:03.862Z,5.90
2019-02-12T15:04:32.633Z,7.83
2019-02-12T15:07:01.366Z,5.27
2019-02-12T15:09:30.210Z,8.87
2019-02-12T15:11:58.920Z,5.03
2019-02-12T15:14:27.663Z,8.90
2019-02-12T15:16:56.430Z,4.63
2019-02-12T15:19:25.226Z,6.70
2019-02-12T15:21:54.048Z,9.70
2019-02-12T15:24:22.851Z,6.43
2019-02-12T15:26:51.708Z,6.37
2019-02-12T15:29:20.489Z,8.00
2019-02-12T15:31:49.303Z,4.47
2019-02-12T15:34:18.160Z,6.43
2019-02-12T15:36:46.979Z,6.57
2019-02-12T15:39:15.779Z,5.40
2019-02-12T15:41:44.551Z,6.53
2019-02-12T15:44:13.265Z,6.87
2019-02-12T15:46:42.023Z,5.30
2019-02-12T15:49:10.778Z,6.10
2019-02-12T15:51:39.543Z,5.13
2019-02-12T15:54:08.303Z,4.30
2019-02-12T15:56:37.083Z,6.00
2019-02-12T15:59:05.871Z,6.03
2019-02-12T16:01:34.683Z,5.37
2019-02-12T16:04:03.930Z,6.63
2019-02-12T16:06:32.651Z,6.17
2019-02-12T16:09:01.411Z,7.73
2019-02-12T16:11:30.351Z,6.13
2019-02-12T16:13:59.085Z,4.50
2019-02-12T16:16:28.518Z,5.17
2019-02-12T16:18:58.321Z,6.17
2019-02-12T16:21:27.122Z,7.50
2019-02-12T16:23:55.883Z,7.57
2019-02-12T16:26:24.931Z,6.43
2019-02-12T16:28:53.717Z,6.40
2019-02-12T16:31:22.475Z,7.33
2019-02-12T16:33:51.327Z,6.77
2019-02-12T16:36:20.057Z,8.07
2019-02-12T16:38:49.031Z,8.73
2019-02-12T16:41:17.812Z,7.00
2019-02-12T16:43:46.558Z,9.47
2019-02-12T16:46:17.163Z,7.37
2019-02-12T16:48:45.934Z,6.87
2019-02-12T16:51:14.696Z,6.17
2019-02-12T16:53:43.615Z,7.60
2019-02-12T16:56:13.334Z,10.73
2019-02-12T16:58:42.115Z,7.50
2019-02-12T17:01:10.879Z,6.20
2019-02-12T17:03:42.654Z,9.13
2019-02-12T17:06:20.652Z,6.13
2019-02-12T17:08:57.417Z,9.17
2019-02-12T17:11:26.411Z,6.10
2019-02-12T17:14:03.289Z,9.93
2019-02-12T17:16:32.056Z,6.63
2019-02-12T17:19:01.635Z,7.97
2019-02-12T17:24:33.730Z,8.17
2019-02-12T17:27:05.615Z,10.10
2019-02-12T17:29:34.728Z,12.47
2019-02-12T17:32:03.588Z,11.17
2019-02-12T17:34:37.927Z,13.10
2019-02-12T17:37:06.972Z,13.70
2019-02-12T17:39:41.425Z,17.83
2019-02-12T17:42:10.203Z,16.43
2019-02-12T17:44:38.960Z,11.90
2019-02-12T17:47:07.827Z,11.03
2019-02-12T17:49:42.773Z,9.33
2019-02-12T17:52:11.955Z,9.77
2019-02-12T17:54:42.318Z,7.10
2019-02-12T17:57:12.402Z,8.20
2019-02-12T17:59:42.463Z,8.67
2019-02-12T18:02:11.281Z,7.63
2019-02-12T18:04:40.032Z,7.97
2019-02-12T18:07:08.887Z,9.80
2019-02-12T18:09:37.637Z,10.53
2019-02-12T18:12:06.446Z,7.40
2019-02-12T18:14:35.299Z,10.27
2019-02-12T18:17:04.042Z,10.73
2019-02-12T18:19:32.830Z,19.77
2019-02-12T18:22:01.673Z,20.40
2019-02-12T18:24:30.455Z,15.13
2019-02-12T18:26:59.239Z,18.10
2019-02-12T18:29:28.126Z,18.33
2019-02-12T18:31:56.949Z,12.90
2019-02-12T18:34:25.706Z,12.83
2019-02-12T18:36:56.694Z,10.70
2019-02-12T18:39:25.466Z,9.87
2019-02-12T18:41:54.237Z,7.37
2019-02-12T18:44:23.014Z,8.90
2019-02-12T18:46:51.787Z,8.20
2019-02-12T18:49:20.647Z,7.40
2019-02-12T18:51:49.466Z,8.07
2019-02-12T18:54:18.458Z,8.17
2019-02-12T18:56:47.301Z,6.90
2019-02-12T18:59:16.087Z,9.30
2019-02-12T19:01:44.964Z,11.53
2019-02-12T19:04:13.779Z,7.60
2019-02-12T19:06:42.548Z,8.53
2019-02-12T19:09:15.141Z,8.67
2019-02-12T19:11:52.795Z,9.03
2019-02-12T19:14:14.412Z,9.30
2019-02-12T19:16:43.157Z,7.37
2019-02-12T19:19:14.309Z,7.33
2019-02-12T19:21:43.122Z,9.93
2019-02-12T19:24:11.902Z,8.07
2019-02-12T19:26:40.668Z,7.33
2019-02-12T19:29:09.472Z,7.70
2019-02-12T19:31:38.413Z,9.93
2019-02-12T19:34:07.187Z,10.60
2019-02-12T19:36:35.988Z,11.67
2019-02-12T19:39:05.546Z,13.03
2019-02-12T19:41:34.381Z,11.57
2019-02-12T19:44:03.160Z,9.40
2019-02-12T19:46:31.921Z,9.80
2019-02-12T19:49:00.765Z,7.07
2019-02-12T19:51:29.608Z,7.97
2019-02-12T19:53:58.493Z,8.80
2019-02-12T19:56:27.284Z,9.70
2019-02-12T19:58:56.019Z,9.67
2019-02-12T20:01:24.871Z,11.63
2019-02-12T20:03:53.694Z,6.70
2019-02-12T20:06:22.618Z,8.80
2019-02-12T20:08:51.363Z,10.53
2019-02-12T20:11:20.123Z,8.60
2019-02-12T20:13:48.934Z,8.47
2019-02-12T20:16:17.678Z,7.93
2019-02-12T20:18:46.464Z,6.50
2019-02-12T20:21:15.286Z,7.57
2019-02-12T20:23:44.303Z,7.97
2019-02-12T20:26:13.055Z,12.37
2019-02-12T20:28:41.843Z,8.23
2019-02-12T20:31:10.731Z,6.80
2019-02-12T20:33:41.258Z,7.03
2019-02-12T20:36:10.235Z,7.83
2019-02-12T20:38:38.993Z,7.57
2019-02-12T20:41:07.802Z,6.57
2019-02-12T20:43:36.914Z,8.83
2019-02-12T20:46:05.760Z,8.37
2019-02-12T20:48:34.531Z,7.97
2019-02-12T20:51:03.360Z,7.67
2019-02-12T20:53:32.235Z,9.30
2019-02-12T20:56:01.044Z,6.40
2019-02-12T20:58:30.270Z,7.10
2019-02-12T21:00:59.044Z,7.30
2019-02-12T21:03:27.855Z,8.77
2019-02-12T21:05:56.673Z,6.83
2019-02-12T21:08:25.488Z,8.33
2019-02-12T21:10:54.284Z,9.77
2019-02-12T21:13:23.058Z,6.60
2019-02-12T21:15:51.848Z,7.63
2019-02-12T21:18:20.644Z,9.77
2019-02-12T21:20:49.458Z,7.40
2019-02-12T21:23:18.291Z,6.67
2019-02-12T21:25:47.058Z,9.47
2019-02-12T21:28:15.899Z,8.90
2019-02-12T21:30:44.830Z,8.97
2019-02-12T21:33:13.597Z,7.53
2019-02-12T21:35:42.382Z,8.30
2019-02-12T21:38:14.490Z,6.87
2019-02-12T21:40:43.283Z,9.60
2019-02-12T21:43:12.100Z,11.17
2019-02-12T21:45:40.856Z,9.00
2019-02-12T21:48:09.613Z,7.30
2019-02-12T21:50:38.376Z,8.27
2019-02-12T21:53:07.156Z,8.57
2019-02-12T21:55:35.908Z,6.43
2019-02-12T21:58:06.623Z,7.70
2019-02-12T22:00:35.342Z,7.83
2019-02-12T22:03:04.664Z,6.30
2019-02-12T22:05:33.651Z,12.03
2019-02-12T22:08:02.411Z,9.53
2019-02-12T22:10:31.170Z,9.57
2019-02-12T22:12:59.938Z,8.53
2019-02-12T22:15:28.682Z,11.60
2019-02-12T22:17:57.430Z,8.70
2019-02-12T22:20:26.208Z,6.33
2019-02-12T22:22:54.960Z,10.10
2019-02-12T22:25:23.679Z,9.23
2019-02-12T22:27:52.726Z,7.90
2019-02-12T22:30:21.475Z,8.07
2019-02-12T22:32:50.540Z,8.77
2019-02-12T22:35:19.346Z,8.10
2019-02-12T22:37:48.149Z,6.77
2019-02-12T22:40:16.890Z,6.00
2019-02-12T22:42:45.659Z,9.03
2019-02-12T22:45:18.061Z,10.77
2019-02-12T22:47:46.808Z,7.97
2019-02-12T22:50:15.587Z,8.00
2019-02-12T22:52:44.318Z,11.03
2019-02-12T22:55:13.082Z,8.80
2019-02-12T22:57:48.821Z,8.70
2019-02-12T23:00:22.678Z,12.13
2019-02-12T23:02:51.984Z,8.47
2019-02-12T23:05:22.200Z,7.73
2019-02-12T23:07:51.081Z,8.47
2019-02-12T23:10:19.841Z,10.30
2019-02-12T23:12:48.634Z,7.43
2019-02-12T23:15:17.446Z,7.43
2019-02-12T23:17:46.172Z,8.10
2019-02-12T23:20:15.184Z,7.67
2019-02-12T23:22:43.920Z,9.97
2019-02-12T23:25:19.709Z,8.83
2019-02-12T23:27:44.478Z,7.90
2019-02-12T23:30:13.203Z,11.47
2019-02-12T23:32:42.344Z,8.60
2019-02-12T23:35:11.112Z,9.30
2019-02-12T23:37:39.848Z,9.03
2019-02-12T23:40:08.562Z,8.50
2019-02-12T23:42:37.304Z,9.43
2019-02-12T23:45:06.347Z,8.50
2019-02-12T23:47:35.071Z,12.03
2019-02-12T23:50:03.926Z,13.07
2019-02-12T23:52:32.629Z,11.27
2019-02-12T23:55:01.385Z,8.40
2019-02-12T23:57:30.261Z,9.07
2019-02-12T23:59:59.039Z,10.53
